sensor_id;sensor_type;location;lat;lon;timestamp;P1;durP1;ratioP1;P2;durP2;ratioP2
71162;SDS011;58858;50.948;6.566;2022-12-07T00:05:43;25.13;;;17.77;;
71162;SDS011;58858;50.948;6.566;2022-12-07T00:15:44;22.20;;;16.40;;
71162;SDS011;58858;50.948;6.566;2022-12-07T00:25:45;24.63;;;16.55;;
71162;SDS011;58858;50.948;6.566;2022-12-07T00:35:54;26.17;;;17.67;;
71162;SDS011;58858;50.948;6.566;2022-12-07T00:45:56;30.02;;;19.00;;
71162;SDS011;58858;50.948;6.566;2022-12-07T00:55:57;35.17;;;21.75;;
71162;SDS011;58858;50.948;6.566;2022-12-07T01:05:58;32.03;;;21.23;;
71162;SDS011;58858;50.948;6.566;2022-12-07T01:16:00;31.83;;;20.48;;
71162;SDS011;58858;50.948;6.566;2022-12-07T01:26:08;25.67;;;15.98;;
71162;SDS011;58858;50.948;6.566;2022-12-07T01:36:15;32.22;;;21.25;;
71162;SDS011;58858;50.948;6.566;2022-12-07T01:46:17;29.23;;;20.55;;
71162;SDS011;58858;50.948;6.566;2022-12-07T01:56:19;30.83;;;22.15;;
71162;SDS011;58858;50.948;6.566;2022-12-07T02:06:22;30.80;;;21.80;;
71162;SDS011;58858;50.948;6.566;2022-12-07T02:16:25;31.35;;;21.45;;
71162;SDS011;58858;50.948;6.566;2022-12-07T02:26:33;31.95;;;21.83;;
71162;SDS011;58858;50.948;6.566;2022-12-07T02:37:02;33.17;;;21.20;;
71162;SDS011;58858;50.948;6.566;2022-12-07T02:47:09;34.15;;;22.65;;
71162;SDS011;58858;50.948;6.566;2022-12-07T02:57:17;36.67;;;22.77;;
71162;SDS011;58858;50.948;6.566;2022-12-07T03:07:27;33.28;;;23.40;;
71162;SDS011;58858;50.948;6.566;2022-12-07T03:17:35;35.30;;;23.63;;
71162;SDS011;58858;50.948;6.566;2022-12-07T03:27:41;35.58;;;22.30;;
71162;SDS011;58858;50.948;6.566;2022-12-07T03:47:54;34.05;;;21.48;;
71162;SDS011;58858;50.948;6.566;2022-12-07T03:58:06;36.20;;;23.75;;
71162;SDS011;58858;50.948;6.566;2022-12-07T04:08:10;33.10;;;22.52;;
71162;SDS011;58858;50.948;6.566;2022-12-07T04:18:11;36.92;;;24.27;;
71162;SDS011;58858;50.948;6.566;2022-12-07T04:28:12;42.63;;;26.33;;
71162;SDS011;58858;50.948;6.566;2022-12-07T04:38:13;42.90;;;25.08;;
71162;SDS011;58858;50.948;6.566;2022-12-07T04:48:14;35.00;;;23.23;;
71162;SDS011;58858;50.948;6.566;2022-12-07T04:58:15;43.00;;;25.23;;
71162;SDS011;58858;50.948;6.566;2022-12-07T05:08:16;41.40;;;25.40;;
71162;SDS011;58858;50.948;6.566;2022-12-07T05:18:17;44.83;;;25.13;;
71162;SDS011;58858;50.948;6.566;2022-12-07T05:28:18;41.33;;;26.05;;
71162;SDS011;58858;50.948;6.566;2022-12-07T05:38:19;48.70;;;26.58;;
71162;SDS011;58858;50.948;6.566;2022-12-07T05:48:20;40.08;;;25.13;;
71162;SDS011;58858;50.948;6.566;2022-12-07T05:58:21;36.22;;;23.23;;
71162;SDS011;58858;50.948;6.566;2022-12-07T06:08:41;44.55;;;26.30;;
71162;SDS011;58858;50.948;6.566;2022-12-07T06:18:42;41.42;;;24.42;;
71162;SDS011;58858;50.948;6.566;2022-12-07T06:28:43;40.22;;;25.08;;
71162;SDS011;58858;50.948;6.566;2022-12-07T06:38:44;38.13;;;24.63;;
71162;SDS011;58858;50.948;6.566;2022-12-07T06:48:45;36.45;;;22.55;;
71162;SDS011;58858;50.948;6.566;2022-12-07T06:58:46;38.58;;;22.88;;
71162;SDS011;58858;50.948;6.566;2022-12-07T07:08:48;38.08;;;23.23;;
71162;SDS011;58858;50.948;6.566;2022-12-07T07:18:49;44.95;;;23.55;;
71162;SDS011;58858;50.948;6.566;2022-12-07T07:28:50;34.85;;;21.08;;
71162;SDS011;58858;50.948;6.566;2022-12-07T07:38:54;33.25;;;20.58;;
71162;SDS011;58858;50.948;6.566;2022-12-07T07:48:56;30.15;;;19.33;;
71162;SDS011;58858;50.948;6.566;2022-12-07T07:58:59;28.73;;;16.63;;
71162;SDS011;58858;50.948;6.566;2022-12-07T08:09:00;31.90;;;17.08;;
71162;SDS011;58858;50.948;6.566;2022-12-07T08:19:01;34.95;;;18.77;;
71162;SDS011;58858;50.948;6.566;2022-12-07T08:29:05;31.52;;;18.50;;
71162;SDS011;58858;50.948;6.566;2022-12-07T08:39:06;29.88;;;17.13;;
71162;SDS011;58858;50.948;6.566;2022-12-07T08:49:17;29.42;;;16.75;;
71162;SDS011;58858;50.948;6.566;2022-12-07T08:59:20;26.75;;;16.92;;
71162;SDS011;58858;50.948;6.566;2022-12-07T09:09:25;28.27;;;16.33;;
71162;SDS011;58858;50.948;6.566;2022-12-07T09:19:26;20.00;;;13.63;;
71162;SDS011;58858;50.948;6.566;2022-12-07T09:29:27;17.25;;;11.25;;
71162;SDS011;58858;50.948;6.566;2022-12-07T09:39:28;19.45;;;12.68;;
71162;SDS011;58858;50.948;6.566;2022-12-07T09:49:30;19.05;;;12.48;;
71162;SDS011;58858;50.948;6.566;2022-12-07T09:59:32;17.25;;;10.05;;
71162;SDS011;58858;50.948;6.566;2022-12-07T10:09:33;19.23;;;10.40;;
71162;SDS011;58858;50.948;6.566;2022-12-07T10:19:35;18.75;;;10.82;;
71162;SDS011;58858;50.948;6.566;2022-12-07T10:29:37;20.30;;;11.38;;
71162;SDS011;58858;50.948;6.566;2022-12-07T10:39:43;12.60;;;7.28;;
71162;SDS011;58858;50.948;6.566;2022-12-07T11:00:30;18.08;;;10.95;;
71162;SDS011;58858;50.948;6.566;2022-12-07T11:10:41;15.70;;;8.93;;
71162;SDS011;58858;50.948;6.566;2022-12-07T11:20:57;16.00;;;10.30;;
71162;SDS011;58858;50.948;6.566;2022-12-07T11:31:22;20.25;;;13.95;;
71162;SDS011;58858;50.948;6.566;2022-12-07T11:41:29;17.10;;;11.45;;
71162;SDS011;58858;50.948;6.566;2022-12-07T11:51:34;16.57;;;11.33;;
71162;SDS011;58858;50.948;6.566;2022-12-07T12:22:17;20.25;;;11.27;;
71162;SDS011;58858;50.948;6.566;2022-12-07T12:32:20;16.42;;;10.68;;
71162;SDS011;58858;50.948;6.566;2022-12-07T12:42:42;17.50;;;12.07;;
71162;SDS011;58858;50.948;6.566;2022-12-07T12:53:00;23.38;;;12.18;;
71162;SDS011;58858;50.948;6.566;2022-12-07T13:03:21;20.98;;;11.82;;
71162;SDS011;58858;50.948;6.566;2022-12-07T13:13:28;15.55;;;10.40;;
71162;SDS011;58858;50.948;6.566;2022-12-07T13:33:38;15.20;;;9.55;;
71162;SDS011;58858;50.948;6.566;2022-12-07T13:43:43;15.95;;;9.00;;
71162;SDS011;58858;50.948;6.566;2022-12-07T13:53:49;15.13;;;7.80;;
71162;SDS011;58858;50.948;6.566;2022-12-07T14:03:52;17.38;;;10.25;;
71162;SDS011;58858;50.948;6.566;2022-12-07T14:13:57;20.20;;;8.98;;
71162;SDS011;58858;50.948;6.566;2022-12-07T14:34:14;15.50;;;7.45;;
71162;SDS011;58858;50.948;6.566;2022-12-07T14:44:15;10.95;;;6.07;;
71162;SDS011;58858;50.948;6.566;2022-12-07T14:54:19;12.68;;;7.93;;
71162;SDS011;58858;50.948;6.566;2022-12-07T15:04:21;16.38;;;8.10;;
71162;SDS011;58858;50.948;6.566;2022-12-07T15:14:22;11.15;;;6.65;;
71162;SDS011;58858;50.948;6.566;2022-12-07T15:24:23;4.13;;;3.05;;
71162;SDS011;58858;50.948;6.566;2022-12-07T15:34:25;5.40;;;3.63;;
71162;SDS011;58858;50.948;6.566;2022-12-07T15:44:27;5.88;;;2.58;;
71162;SDS011;58858;50.948;6.566;2022-12-07T15:54:46;3.20;;;2.38;;
71162;SDS011;58858;50.948;6.566;2022-12-07T16:04:48;14.02;;;5.63;;
71162;SDS011;58858;50.948;6.566;2022-12-07T16:14:49;8.40;;;5.40;;
71162;SDS011;58858;50.948;6.566;2022-12-07T16:24:50;13.65;;;9.00;;
71162;SDS011;58858;50.948;6.566;2022-12-07T16:34:52;22.20;;;11.35;;
71162;SDS011;58858;50.948;6.566;2022-12-07T16:44:53;15.07;;;9.70;;
71162;SDS011;58858;50.948;6.566;2022-12-07T16:54:54;20.65;;;10.18;;
71162;SDS011;58858;50.948;6.566;2022-12-07T17:04:55;21.65;;;13.80;;
71162;SDS011;58858;50.948;6.566;2022-12-07T17:14:56;17.50;;;12.38;;
71162;SDS011;58858;50.948;6.566;2022-12-07T17:25:16;22.17;;;12.13;;
71162;SDS011;58858;50.948;6.566;2022-12-07T17:35:17;16.75;;;10.00;;
71162;SDS011;58858;50.948;6.566;2022-12-07T17:45:19;11.57;;;8.35;;
71162;SDS011;58858;50.948;6.566;2022-12-07T17:55:20;18.38;;;9.88;;
71162;SDS011;58858;50.948;6.566;2022-12-07T18:05:21;16.25;;;9.52;;
71162;SDS011;58858;50.948;6.566;2022-12-07T18:15:22;20.85;;;11.38;;
71162;SDS011;58858;50.948;6.566;2022-12-07T18:25:23;19.92;;;12.32;;
71162;SDS011;58858;50.948;6.566;2022-12-07T18:35:24;19.80;;;12.00;;
71162;SDS011;58858;50.948;6.566;2022-12-07T18:45:25;18.85;;;11.75;;
71162;SDS011;58858;50.948;6.566;2022-12-07T18:55:27;18.20;;;13.60;;
71162;SDS011;58858;50.948;6.566;2022-12-07T19:05:28;19.20;;;12.07;;
71162;SDS011;58858;50.948;6.566;2022-12-07T19:15:29;20.00;;;13.40;;
71162;SDS011;58858;50.948;6.566;2022-12-07T19:25:31;17.92;;;10.93;;
71162;SDS011;58858;50.948;6.566;2022-12-07T19:35:32;21.52;;;12.73;;
71162;SDS011;58858;50.948;6.566;2022-12-07T19:45:33;19.17;;;12.52;;
71162;SDS011;58858;50.948;6.566;2022-12-07T19:55:37;21.73;;;12.93;;
71162;SDS011;58858;50.948;6.566;2022-12-07T20:05:39;22.35;;;12.85;;
71162;SDS011;58858;50.948;6.566;2022-12-07T20:15:40;22.73;;;12.77;;
71162;SDS011;58858;50.948;6.566;2022-12-07T20:25:42;18.33;;;11.75;;
71162;SDS011;58858;50.948;6.566;2022-12-07T20:35:43;18.45;;;12.02;;
71162;SDS011;58858;50.948;6.566;2022-12-07T20:45:44;21.20;;;13.48;;
71162;SDS011;58858;50.948;6.566;2022-12-07T20:55:49;17.50;;;11.80;;
71162;SDS011;58858;50.948;6.566;2022-12-07T21:05:50;18.77;;;12.73;;
71162;SDS011;58858;50.948;6.566;2022-12-07T21:15:51;20.02;;;12.43;;
71162;SDS011;58858;50.948;6.566;2022-12-07T21:25:52;33.60;;;15.30;;
71162;SDS011;58858;50.948;6.566;2022-12-07T21:35:53;22.80;;;16.60;;
71162;SDS011;58858;50.948;6.566;2022-12-07T21:45:54;22.08;;;14.70;;
71162;SDS011;58858;50.948;6.566;2022-12-07T21:55:55;17.73;;;13.07;;
71162;SDS011;58858;50.948;6.566;2022-12-07T22:05:59;22.90;;;13.70;;
71162;SDS011;58858;50.948;6.566;2022-12-07T22:16:01;15.70;;;11.00;;
71162;SDS011;58858;50.948;6.566;2022-12-07T22:26:06;15.05;;;11.07;;
71162;SDS011;58858;50.948;6.566;2022-12-07T22:36:08;17.70;;;12.02;;
71162;SDS011;58858;50.948;6.566;2022-12-07T22:46:10;23.08;;;13.10;;
71162;SDS011;58858;50.948;6.566;2022-12-07T22:56:11;25.33;;;13.85;;
71162;SDS011;58858;50.948;6.566;2022-12-07T23:16:23;21.42;;;12.80;;
71162;SDS011;58858;50.948;6.566;2022-12-07T23:26:24;20.17;;;13.55;;
71162;SDS011;58858;50.948;6.566;2022-12-07T23:36:25;18.75;;;12.55;;
71162;SDS011;58858;50.948;6.566;2022-12-07T23:46:28;20.45;;;12.55;;
71162;SDS011;58858;50.948;6.566;2022-12-07T23:56:31;21.58;;;12.70;;
